Time;durP1;ratioP1;P1;durP2;ratioP2;P2;SDS_P1;SDS_P2;PMS_P1;PMS_P2;Temp;Humidity;BMP_temperature;BMP_pressure;BME280_temperature;BME280_humidity;BME280_pressure;Samples;Min_cycle;Max_cycle;Signal;HPM_P1;HPM_P2
2023/05/26 00:00:28;;;;;;;19.90;5.80;;;9.90;99.90;9.10;100937;;;;588200;236;35452;-79
2023/05/26 00:02:57;;;;;;;19.12;5.30;;;9.90;99.90;9.10;100945;;;;588031;241;35000;-79
2023/05/26 00:05:25;;;;;;;22.50;5.40;;;9.80;99.90;9.10;100944;;;;592904;242;24124;-78
2023/05/26 00:07:52;;;;;;;16.07;4.50;;;10.90;99.90;9.10;100938;;;;592866;236;24077;-80
2023/05/26 00:10:20;;;;;;;28.97;5.87;;;9.80;99.90;9.00;100930;;;;593016;241;24066;-79
2023/05/26 00:12:49;;;;;;;19.87;4.83;;;9.80;99.90;9.00;100940;;;;592985;241;24065;-79
2023/05/26 00:15:17;;;;;;;15.83;4.97;;;9.80;99.90;9.00;100949;;;;593006;241;24046;-79
2023/05/26 00:17:47;;;;;;;16.83;4.10;;;9.70;99.90;8.90;100933;;;;592979;236;24040;-78
2023/05/26 00:20:14;;;;;;;19.27;5.57;;;9.80;99.90;8.90;100938;;;;587786;241;36490;-78
2023/05/26 00:22:42;;;;;;;21.63;5.47;;;9.70;99.90;8.90;100942;;;;592250;242;26300;-79
2023/05/26 00:25:10;;;;;;;16.07;4.53;;;9.30;99.90;8.90;100939;;;;592424;241;24044;-79
2023/05/26 00:27:39;;;;;;;13.73;3.83;;;;;8.90;100933;;;;592304;241;24071;-79
2023/05/26 00:30:11;;;;;;;19.98;5.12;;;9.80;99.90;8.90;100942;;;;587344;241;35043;-80
2023/05/26 00:32:35;;;;;;;24.00;5.70;;;9.70;99.90;8.90;100935;;;;587071;242;34976;-80
2023/05/26 00:35:04;;;;;;;12.77;4.57;;;9.70;99.90;8.90;100935;;;;592541;241;24050;-78
2023/05/26 00:37:32;;;;;;;14.87;3.70;;;9.70;99.90;8.80;100934;;;;592406;241;24043;-78
2023/05/26 00:40:00;;;;;;;10.93;2.67;;;9.60;99.90;8.90;100927;;;;592243;242;24047;-77
2023/05/26 00:42:29;;;;;;;16.53;4.03;;;9.60;99.90;8.90;100922;;;;592489;241;24105;-78
2023/05/26 00:44:58;;;;;;;15.33;3.87;;;9.60;99.90;8.80;100935;;;;592423;241;24070;-78
2023/05/26 00:47:26;;;;;;;14.83;3.73;;;9.50;99.90;8.80;100938;;;;593137;241;24117;-79
2023/05/26 00:49:55;;;;;;;8.40;2.90;;;9.50;99.90;8.70;100938;;;;592815;241;24059;-78
2023/05/26 00:52:23;;;;;;;9.90;2.97;;;9.50;99.90;8.70;100942;;;;592811;236;24082;-78
2023/05/26 00:54:56;;;;;;;14.10;3.70;;;9.50;99.90;8.70;100932;;;;592748;241;24065;-78
2023/05/26 01:01:07;;;;;;;28.50;5.00;;;9.30;99.90;8.60;100939;;;;593591;242;24062;-78
2023/05/26 01:03:32;;;;;;;24.13;5.37;;;9.30;99.90;8.60;100941;;;;593161;242;24035;-78
2023/05/26 01:06:03;;;;;;;25.03;4.57;;;9.30;99.90;8.60;100931;;;;593221;240;24110;-78
2023/05/26 01:08:28;;;;;;;14.13;3.93;;;9.40;99.90;8.50;100934;;;;592545;242;24058;-78
2023/05/26 01:10:56;;;;;;;14.10;4.30;;;9.30;99.90;8.50;100924;;;;592998;236;24068;-79
2023/05/26 01:13:25;;;;;;;14.20;4.67;;;9.20;99.90;8.50;100926;;;;592472;242;24233;-78
2023/05/26 01:15:53;;;;;;;12.53;3.17;;;9.20;99.90;8.50;100928;;;;592581;236;24083;-79
2023/05/26 01:18:28;;;;;;;23.43;4.97;;;9.20;99.90;8.50;100927;;;;592205;242;24079;-79
2023/05/26 01:20:59;;;;;;;25.70;5.93;;;9.30;99.90;8.40;100927;;;;587789;236;34950;-79
2023/05/26 01:23:48;;;;;;;19.30;5.22;;;9.40;99.90;8.40;100929;;;;586190;242;34987;-79
2023/05/26 01:26:37;;;;;;;15.23;4.33;;;9.20;99.90;8.40;100926;;;;591614;242;24027;-77
2023/05/26 01:29:11;;;;;;;20.50;5.53;;;9.20;99.90;8.40;100932;;;;592531;241;25092;-78
2023/05/26 01:31:43;;;;;;;22.67;5.13;;;9.10;99.90;8.30;100926;;;;592266;242;24044;-79
2023/05/26 01:34:07;;;;;;;30.20;7.30;;;9.30;99.90;8.30;100920;;;;586707;242;34952;-78
2023/05/26 01:36:36;;;;;;;11.90;3.80;;;9.10;99.90;8.30;100918;;;;592329;236;24112;-79
2023/05/26 01:39:10;;;;;;;16.33;4.33;;;9.10;99.90;8.30;100922;;;;592289;236;24103;-79
2023/05/26 01:42:02;;;;;;;12.40;3.37;;;9.00;99.90;8.20;100918;;;;592254;236;24039;-78
2023/05/26 01:44:33;;;;;;;14.43;3.70;;;8.80;99.90;8.20;100924;;;;592632;241;24063;-76
2023/05/26 01:47:00;;;;;;;26.70;4.90;;;9.10;99.90;8.20;100922;;;;591658;242;24087;-80
2023/05/26 01:49:31;;;;;;;32.23;6.23;;;8.80;99.90;8.20;100916;;;;592253;241;24144;-79
2023/05/26 01:52:02;;;;;;;19.75;4.87;;;9.10;99.90;8.20;100914;;;;587285;236;35023;-79
2023/05/26 01:54:30;;;;;;;21.37;5.23;;;8.80;99.90;8.20;100918;;;;592736;242;24055;-78
2023/05/26 01:56:59;;;;;;;10.77;3.73;;;9.00;99.90;8.10;100919;;;;592511;242;24067;-80
2023/05/26 01:59:29;;;;;;;21.70;5.90;;;9.10;99.90;8.10;100906;;;;592248;241;24053;-79
2023/05/26 02:01:55;;;;;;;16.93;3.80;;;8.90;99.90;8.10;100916;;;;592548;239;26243;-79
2023/05/26 02:04:23;;;;;;;11.13;3.73;;;8.10;99.90;8.00;100917;;;;592353;241;24051;-80
2023/05/26 02:06:52;;;;;;;10.53;3.23;;;8.80;99.90;8.00;100916;;;;592288;240;24053;-78
2023/05/26 02:09:19;;;;;;;14.17;3.53;;;9.00;99.90;8.10;100918;;;;593957;240;24111;-78
2023/05/26 02:11:47;;;;;;;20.10;5.00;;;8.80;99.90;8.00;100913;;;;593360;240;24063;-79
2023/05/26 02:14:15;;;;;;;19.70;4.23;;;8.90;99.90;7.90;100907;;;;593205;242;25125;-78
2023/05/26 02:16:43;;;;;;;15.77;4.47;;;8.80;99.90;7.90;100905;;;;593505;240;24063;-80
2023/05/26 02:19:12;;;;;;;13.07;4.00;;;8.80;99.90;7.90;100921;;;;588179;241;35065;-79
2023/05/26 02:21:43;;;;;;;15.03;4.10;;;8.60;99.90;7.90;100923;;;;593298;242;24060;-79
2023/05/26 02:24:07;;;;;;;22.90;6.10;;;9.00;99.90;7.90;100925;;;;592454;242;24070;-79
2023/05/26 02:26:35;;;;;;;10.23;3.53;;;8.60;99.90;7.90;100909;;;;593005;241;24080;-79
2023/05/26 02:29:04;;;;;;;16.87;4.60;;;8.70;99.90;7.90;100914;;;;592810;236;24092;-78
2023/05/26 02:31:34;;;;;;;17.30;4.93;;;8.90;99.90;7.90;100918;;;;592746;236;24073;-79
2023/05/26 02:34:01;;;;;;;13.37;4.40;;;8.60;99.90;7.90;100911;;;;592643;236;24117;-79
2023/05/26 02:36:29;;;;;;;15.80;3.83;;;8.70;99.90;7.90;100915;;;;592789;236;24060;-79
2023/05/26 02:38:57;;;;;;;18.37;6.10;;;8.70;99.90;7.90;100917;;;;592639;236;24044;-79
2023/05/26 02:41:25;;;;;;;23.13;5.67;;;8.50;99.90;7.90;100912;;;;592634;241;24072;-79
2023/05/26 02:43:53;;;;;;;21.30;4.90;;;8.60;99.90;7.90;100909;;;;592481;237;24045;-79
2023/05/26 02:46:21;;;;;;;17.60;4.70;;;8.80;99.90;7.90;100907;;;;592360;241;24063;-79
2023/05/26 02:48:50;;;;;;;18.57;5.63;;;8.70;99.90;7.90;100911;;;;592528;241;24126;-78
2023/05/26 02:51:19;;;;;;;14.67;4.83;;;8.80;99.90;7.90;100897;;;;592409;241;24059;-79
2023/05/26 02:53:47;;;;;;;15.90;4.07;;;8.80;99.90;8.00;100900;;;;592311;236;24091;-79
2023/05/26 02:56:16;;;;;;;20.17;5.60;;;8.70;99.90;8.00;100902;;;;592783;242;24055;-79
2023/05/26 02:58:45;;;;;;;25.92;5.87;;;9.10;99.90;8.10;100903;;;;587280;241;34990;-79
2023/05/26 03:01:13;;;;;;;19.87;5.55;;;9.00;99.90;8.10;100905;;;;587571;236;45842;-79
2023/05/26 03:03:41;;;;;;;27.33;6.25;;;9.00;99.90;8.20;100903;;;;587606;237;35038;-78
2023/05/26 03:06:10;;;;;;;18.93;4.87;;;9.00;99.90;8.20;100906;;;;592764;241;24051;-78
2023/05/26 03:08:37;;;;;;;16.60;3.77;;;8.70;99.90;8.20;100914;;;;592818;241;24047;-78
2023/05/26 03:11:05;;;;;;;15.30;4.00;;;8.90;99.90;8.20;100910;;;;592414;237;24055;-79
2023/05/26 03:13:34;;;;;;;11.30;4.17;;;9.00;99.90;8.30;100914;;;;592868;241;24113;-79
2023/05/26 03:16:03;;;;;;;15.93;4.97;;;9.00;99.90;8.30;100918;;;;592748;241;24041;-79
2023/05/26 03:18:32;;;;;;;23.60;5.00;;;8.90;99.90;8.40;100905;;;;592980;240;24080;-78
2023/05/26 03:20:58;;;;;;;15.47;5.13;;;8.90;99.90;8.40;100909;;;;594084;241;24112;-77
2023/05/26 03:23:27;;;;;;;14.03;4.30;;;10.50;99.90;8.50;100910;;;;593684;240;24098;-79
2023/05/26 03:25:54;;;;;;;16.23;4.87;;;9.40;99.90;8.60;100915;;;;588469;242;34998;-79
2023/05/26 03:28:22;;;;;;;20.03;5.70;;;9.30;99.90;8.90;100909;;;;593551;240;24072;-79
2023/05/26 03:30:51;;;;;;;20.53;5.13;;;10.20;99.90;9.30;100908;;;;593585;241;24051;-79
2023/05/26 03:33:21;;;;;;;14.63;4.03;;;10.40;99.90;9.60;100905;;;;593600;242;24069;-78
2023/05/26 03:35:47;;;;;;;16.47;5.03;;;10.50;99.90;9.90;100895;;;;593195;241;24039;-79
2023/05/26 03:38:14;;;;;;;28.80;6.60;;;10.80;99.90;10.20;100908;;;;593171;236;24088;-77
2023/05/26 03:40:46;;;;;;;16.83;4.70;;;11.10;99.90;10.50;100902;;;;593077;241;24041;-79
2023/05/26 03:43:11;;;;;;;12.83;4.53;;;11.40;99.90;10.80;100901;;;;592709;242;24032;-79
2023/05/26 03:45:43;;;;;;;22.10;4.07;;;11.70;99.90;11.10;100895;;;;593060;241;24042;-79
2023/05/26 03:48:12;;;;;;;19.43;4.87;;;12.20;99.90;11.40;100907;;;;592780;242;24050;-79
2023/05/26 03:50:39;;;;;;;17.93;4.67;;;12.40;99.90;11.70;100903;;;;592784;241;24094;-79
2023/05/26 03:53:04;;;;;;;21.63;5.50;;;12.60;99.90;11.90;100904;;;;592865;241;24021;-79
2023/05/26 03:55:36;;;;;;;16.33;4.80;;;12.70;99.90;12.10;100901;;;;592859;241;24100;-78
2023/05/26 03:58:00;;;;;;;18.60;4.60;;;12.80;99.90;12.40;100904;;;;591823;236;24033;-77
2023/05/26 04:00:31;;;;;;;21.53;5.23;;;13.30;99.90;12.60;100905;;;;592772;241;24046;-79
2023/05/26 04:02:59;;;;;;;12.00;4.43;;;13.70;99.90;12.90;100909;;;;592054;242;24079;-80
2023/05/26 04:05:28;;;;;;;14.10;4.40;;;13.80;99.90;13.10;100905;;;;592138;242;25202;-79
2023/05/26 04:07:53;;;;;;;17.87;4.73;;;14.20;99.90;13.50;100917;;;;592203;242;24036;-79
2023/05/26 04:10:24;;;;;;;16.33;4.47;;;15.30;99.90;13.70;100907;;;;592253;241;24108;-79
2023/05/26 04:12:49;;;;;;;15.30;3.87;;;14.80;99.90;13.90;100914;;;;592114;241;24055;-80
2023/05/26 04:15:18;;;;;;;15.03;3.80;;;15.10;99.90;14.20;100913;;;;592314;236;24082;-79
2023/05/26 04:17:46;;;;;;;28.17;6.07;;;15.10;99.90;14.40;100914;;;;592422;241;24079;-79
2023/05/26 04:20:15;;;;;;;18.63;5.33;;;15.20;99.90;14.70;100914;;;;592302;241;24056;-79
2023/05/26 04:22:42;;;;;;;17.27;4.33;;;15.80;99.90;15.20;100915;;;;592681;236;24047;-79
2023/05/26 04:25:11;;;;;;;18.17;5.03;;;16.40;99.90;15.50;100931;;;;592354;241;24040;-79
2023/05/26 04:27:38;;;;;;;17.50;5.40;;;16.60;99.90;15.80;100930;;;;592696;241;24071;-79
2023/05/26 04:30:08;;;;;;;18.73;3.83;;;16.90;99.90;16.00;100920;;;;592923;236;24040;-79
2023/05/26 04:32:38;;;;;;;20.33;5.80;;;17.10;99.90;16.40;100923;;;;594286;240;24056;-78
2023/05/26 04:35:06;;;;;;;17.17;4.53;;;17.90;99.90;16.90;100936;;;;593559;240;24032;-79
2023/05/26 04:37:34;;;;;;;13.70;4.13;;;17.70;99.90;16.70;100930;;;;593456;242;24055;-78
2023/05/26 04:39:58;;;;;;;24.67;5.03;;;18.10;99.90;16.80;100931;;;;593089;236;24078;-80
2023/05/26 04:42:27;;;;;;;25.13;6.10;;;18.10;99.90;17.20;100945;;;;593284;241;24052;-80
2023/05/26 04:44:55;;;;;;;20.23;4.97;;;18.10;99.90;17.50;100941;;;;593282;241;24094;-80
2023/05/26 04:47:23;;;;;;;22.90;4.40;;;19.20;99.90;18.00;100935;;;;593273;241;24038;-79
2023/05/26 04:49:51;;;;;;;21.80;5.23;;;18.90;99.90;18.20;100937;;;;582876;236;23105;-79
2023/05/26 04:52:19;;;;;;;23.93;4.50;;;19.50;99.90;18.80;100936;;;;582764;241;24066;-81
2023/05/26 04:54:47;;;;;;;164.57;148.10;;;19.90;98.80;19.10;100933;;;;578027;241;23109;-80
2023/05/26 04:57:15;;;;;;;21.57;5.50;;;20.20;97.30;19.50;100942;;;;582898;240;24051;-80
2023/05/26 04:59:43;;;;;;;18.67;4.50;;;20.50;96.50;19.70;100948;;;;583033;242;24096;-80
2023/05/26 05:02:10;;;;;;;21.93;4.97;;;20.40;94.50;20.00;100939;;;;583083;242;23045;-80
2023/05/26 05:04:42;;;;;;;16.43;5.13;;;20.80;94.40;19.90;100943;;;;583124;242;23189;-79
2023/05/26 05:07:06;;;;;;;21.67;4.97;;;20.80;93.70;20.00;100942;;;;582303;241;24035;-79
2023/05/26 05:09:34;;;;;;;16.37;4.60;;;21.10;92.60;20.40;100942;;;;582500;242;24092;-80
2023/05/26 05:12:02;;;;;;;15.97;4.50;;;20.60;92.20;20.50;100949;;;;582765;242;24040;-78
2023/05/26 05:14:31;;;;;;;22.40;5.30;;;21.70;91.10;21.00;100949;;;;582575;242;24034;-79
2023/05/26 05:16:59;;;;;;;20.37;4.77;;;22.10;90.10;21.30;100956;;;;582675;242;24082;-79
2023/05/26 05:19:27;;;;;;;22.10;4.33;;;22.30;87.80;21.60;100959;;;;582721;242;23051;-80
2023/05/26 05:21:55;;;;;;;13.60;4.53;;;22.70;85.40;22.00;100965;;;;583042;242;24084;-80
2023/05/26 05:24:23;;;;;;;27.10;5.23;;;23.30;84.10;22.50;100966;;;;582771;241;24024;-78
2023/05/26 05:26:51;;;;;;;19.70;5.37;;;23.10;84.20;22.90;100963;;;;582651;242;24021;-79
2023/05/26 05:29:19;;;;;;;23.17;4.23;;;23.80;79.00;23.30;100963;;;;583159;242;24060;-79
2023/05/26 05:31:50;;;;;;;11.40;4.00;;;24.50;75.70;23.70;100965;;;;583048;242;24115;-79
2023/05/26 05:34:14;;;;;;;23.57;5.00;;;24.30;73.70;24.00;100976;;;;582810;242;24065;-80
2023/05/26 05:36:42;;;;;;;18.97;4.63;;;24.80;72.00;24.10;100972;;;;582670;242;23106;-79
2023/05/26 05:39:10;;;;;;;31.63;6.70;;;24.30;69.80;24.10;100977;;;;582561;242;23077;-79
2023/05/26 05:41:38;;;;;;;14.90;4.07;;;24.80;70.60;24.40;100981;;;;582618;240;23084;-79
2023/05/26 05:44:06;;;;;;;20.97;4.93;;;25.20;68.80;24.50;100984;;;;584168;242;24077;-79
2023/05/26 05:46:34;;;;;;;17.50;4.30;;;26.20;68.20;24.80;100979;;;;583872;242;24060;-80
2023/05/26 05:49:03;;;;;;;19.97;4.93;;;25.80;66.00;25.20;100989;;;;583522;240;23055;-80
2023/05/26 05:51:32;;;;;;;13.63;4.03;;;25.90;64.40;25.20;100989;;;;583357;242;23055;-80
2023/05/26 05:54:00;;;;;;;17.57;4.73;;;25.80;63.70;25.00;100990;;;;583246;242;23080;-79
2023/05/26 05:56:29;;;;;;;16.13;4.53;;;25.60;63.20;24.90;100981;;;;583222;242;24051;-77
2023/05/26 05:58:57;;;;;;;20.67;5.60;;;25.50;63.50;24.70;100992;;;;583240;242;24105;-78
2023/05/26 06:01:28;;;;;;;14.80;4.53;;;25.50;62.50;24.70;100992;;;;583394;242;23167;-78
2023/05/26 06:03:53;;;;;;;14.73;4.17;;;25.90;62.20;24.90;100989;;;;577463;242;24077;-79
2023/05/26 06:06:21;;;;;;;18.07;4.53;;;25.40;62.20;24.90;101004;;;;583414;242;23059;-79
2023/05/26 06:08:49;;;;;;;11.43;3.87;;;25.50;63.50;25.50;100998;;;;583459;242;23130;-80
2023/05/26 06:11:17;;;;;;;25.03;6.03;;;26.30;60.00;25.90;101007;;;;583383;242;23105;-78
2023/05/26 06:13:45;;;;;;;13.70;4.23;;;26.70;59.30;26.10;101017;;;;582949;241;23041;-79
2023/05/26 06:16:16;;;;;;;13.70;5.03;;;26.70;58.90;26.20;101022;;;;583130;242;24304;-79
2023/05/26 06:18:41;;;;;;;16.30;4.77;;;27.00;58.30;26.30;101010;;;;582576;242;23060;-79
2023/05/26 06:21:12;;;;;;;17.37;5.27;;;26.80;58.60;26.60;101019;;;;583023;242;23114;-79
2023/05/26 06:23:40;;;;;;;26.60;5.85;;;27.30;58.70;26.80;101016;;;;582943;242;23042;-78
2023/05/26 06:26:09;;;;;;;13.10;4.65;;;27.60;58.00;27.20;101032;;;;582640;242;23110;-78
2023/05/26 06:28:37;;;;;;;21.30;5.93;;;27.70;56.90;27.50;101036;;;;582727;242;23051;-80
2023/05/26 06:31:05;;;;;;;25.48;6.03;;;28.10;55.90;27.80;101030;;;;582954;242;24079;-80
2023/05/26 06:33:33;;;;;;;15.38;4.55;;;28.70;55.30;28.40;101039;;;;583131;241;23178;-79
2023/05/26 06:36:01;;;;;;;18.50;5.05;;;29.40;54.60;28.90;101046;;;;583068;242;24086;-79
2023/05/26 06:38:29;;;;;;;10.80;3.87;;;29.20;55.00;29.30;101054;;;;583044;241;23057;-80
2023/05/26 06:40:57;;;;;;;16.92;5.00;;;30.00;52.90;29.60;101064;;;;583003;242;24191;-80
2023/05/26 06:43:25;;;;;;;20.00;5.57;;;30.20;52.60;29.80;101069;;;;582579;241;23081;-80
2023/05/26 06:45:53;;;;;;;287.98;268.27;;;30.50;51.10;30.20;101071;;;;582696;241;23042;-79
2023/05/26 06:48:22;;;;;;;19.15;5.22;;;30.90;51.20;30.60;101073;;;;582532;241;23093;-78
2023/05/26 06:50:53;;;;;;;17.12;5.32;;;30.90;51.20;31.10;101072;;;;577914;241;23075;-80
2023/05/26 06:53:18;;;;;;;15.45;4.82;;;32.10;49.20;31.70;101074;;;;582669;240;23168;-80
2023/05/26 06:55:45;;;;;;;21.77;5.78;;;32.60;48.40;32.20;101077;;;;578053;242;23029;-80
2023/05/26 06:58:16;;;;;;;20.37;5.57;;;32.80;46.40;32.40;101075;;;;583829;242;23087;-79
2023/05/26 07:00:41;;;;;;;18.80;5.62;;;32.80;45.20;32.30;101079;;;;583278;236;23079;-79
2023/05/26 07:03:09;;;;;;;23.35;5.97;;;32.60;45.50;32.10;101079;;;;581993;242;23052;-79
2023/05/26 07:05:38;;;;;;;14.65;5.18;;;32.60;45.40;32.30;101072;;;;583550;242;23047;-80
2023/05/26 07:08:05;;;;;;;16.67;4.07;;;32.90;45.10;32.60;101067;;;;583641;241;23046;-80
2023/05/26 07:10:33;;;;;;;11.95;4.62;;;33.20;44.60;32.90;101067;;;;583643;242;23044;-80
2023/05/26 07:13:01;;;;;;;13.35;4.28;;;33.20;45.00;33.30;101076;;;;583430;242;23171;-80
2023/05/26 07:15:29;;;;;;;13.27;4.65;;;33.90;43.20;33.70;101080;;;;583244;240;23095;-80
2023/05/26 07:17:57;;;;;;;11.18;4.22;;;33.90;43.30;33.40;101077;;;;582963;241;23073;-80
2023/05/26 07:20:25;;;;;;;10.15;4.20;;;33.80;43.50;33.60;101087;;;;583026;242;23041;-81
2023/05/26 07:22:53;;;;;;;13.43;4.50;;;33.90;42.80;33.60;101086;;;;582880;242;23053;-80
2023/05/26 07:25:21;;;;;;;16.45;5.85;;;34.00;43.60;34.20;101089;;;;582930;242;23077;-79
2023/05/26 07:27:49;;;;;;;12.55;4.25;;;34.50;43.30;34.10;101081;;;;582981;242;23106;-81
2023/05/26 07:30:20;;;;;;;10.63;4.43;;;34.60;41.60;34.20;101095;;;;582730;242;23042;-80
2023/05/26 07:32:45;;;;;;;15.82;4.53;;;34.70;42.00;34.70;101108;;;;587144;242;23085;-80
2023/05/26 07:35:16;;;;;;;13.15;4.20;;;35.10;40.30;34.70;101105;;;;583024;242;23039;-80
2023/05/26 07:37:41;;;;;;;9.48;3.90;;;35.20;39.60;34.80;101107;;;;576979;242;23099;-79
2023/05/26 07:40:12;;;;;;;12.15;4.37;;;35.20;39.20;34.70;101108;;;;583086;242;23110;-80
2023/05/26 07:42:36;;;;;;;13.77;4.07;;;35.00;39.60;34.90;101111;;;;582860;236;23114;-80
2023/05/26 07:45:04;;;;;;;13.18;4.57;;;35.30;40.20;34.80;101115;;;;582735;242;24064;-81
2023/05/26 07:47:34;;;;;;;12.98;4.75;;;35.30;40.20;35.00;101112;;;;582636;242;23089;-80
2023/05/26 07:50:02;;;;;;;11.52;4.37;;;35.90;39.60;35.60;101112;;;;576918;242;23056;-80
2023/05/26 07:52:30;;;;;;;12.18;4.20;;;36.60;39.80;36.40;101113;;;;577540;242;23061;-80
2023/05/26 07:54:59;;;;;;;15.52;4.80;;;37.30;38.80;37.00;101124;;;;582617;241;23071;-80
2023/05/26 07:57:32;;;;;;;13.23;4.12;;;37.70;37.90;37.50;101119;;;;582828;242;23050;-79
2023/05/26 07:59:59;;;;;;;12.50;4.43;;;37.70;37.90;37.70;101137;;;;582212;242;23053;-80
2023/05/26 08:02:27;;;;;;;18.35;5.47;;;38.10;36.70;37.30;101138;;;;586619;242;34985;-81
2023/05/26 08:04:52;;;;;;;14.50;4.90;;;37.80;37.00;36.90;101132;;;;582788;240;24062;-80
2023/05/26 08:07:20;;;;;;;13.40;4.32;;;37.50;36.60;37.50;101147;;;;579466;242;34946;-81
2023/05/26 08:09:48;;;;;;;12.25;4.37;;;37.70;35.10;37.10;101142;;;;584101;240;23036;-80
2023/05/26 08:12:16;;;;;;;15.13;5.68;;;37.60;35.00;36.90;101149;;;;583876;242;23049;-79
2023/05/26 08:14:44;;;;;;;12.43;4.50;;;37.50;35.50;36.60;101141;;;;583782;242;23030;-80
2023/05/26 08:17:12;;;;;;;15.88;4.47;;;37.40;35.90;37.30;101160;;;;583317;242;23100;-80
2023/05/26 08:19:40;;;;;;;13.65;4.82;;;37.70;35.00;37.30;101145;;;;583520;242;23111;-80
2023/05/26 08:22:08;;;;;;;30.58;7.30;;;37.70;36.10;37.30;101143;;;;583440;242;23091;-81
2023/05/26 08:24:36;;;;;;;21.45;5.53;;;37.80;35.30;37.80;101143;;;;582839;242;23093;-81
2023/05/26 08:27:07;;;;;;;13.15;5.07;;;38.10;35.50;38.30;101139;;;;577082;242;23128;-81
2023/05/26 08:29:34;;;;;;;19.55;5.30;;;38.70;35.20;38.50;101145;;;;582710;242;23093;-80
2023/05/26 08:31:59;;;;;;;25.10;6.37;;;39.00;34.90;38.80;101145;;;;583174;242;23098;-81
2023/05/26 08:34:27;;;;;;;14.25;4.97;;;39.30;34.40;39.10;101146;;;;583310;242;23074;-81
2023/05/26 08:36:55;;;;;;;13.20;4.72;;;39.60;34.00;39.70;101153;;;;583296;242;23064;-81
2023/05/26 08:39:23;;;;;;;16.80;5.00;;;40.10;34.30;40.40;101150;;;;583340;242;23086;-81
2023/05/26 08:41:54;;;;;;;14.48;5.57;;;40.80;34.50;40.90;101158;;;;583175;242;23059;-81
2023/05/26 08:44:22;;;;;;;17.85;5.40;;;41.40;33.50;40.60;101162;;;;582778;241;23079;-81
2023/05/26 08:46:55;;;;;;;11.40;4.53;;;41.30;32.60;40.80;101170;;;;582665;241;23061;-81
2023/05/26 08:49:18;;;;;;;21.48;4.57;;;41.50;32.50;41.20;101165;;;;582491;242;23045;-81
2023/05/26 08:51:46;;;;;;;15.07;4.35;;;41.80;31.80;41.30;101162;;;;582693;242;23038;-80
2023/05/26 08:54:17;;;;;;;15.43;5.32;;;41.90;31.70;41.10;101160;;;;582299;242;23102;-81
2023/05/26 08:56:42;;;;;;;14.32;5.18;;;41.80;31.70;40.00;101168;;;;582430;242;23054;-81
2023/05/26 08:59:10;;;;;;;28.23;6.70;;;41.10;31.80;39.60;101162;;;;582600;242;23038;-80
2023/05/26 09:01:38;;;;;;;20.77;5.93;;;40.40;32.00;39.50;101165;;;;577978;242;34939;-81
2023/05/26 09:04:05;;;;;;;18.30;5.85;;;40.40;32.70;39.80;101168;;;;582711;242;23038;-80
2023/05/26 09:06:38;;;;;;;21.65;5.28;;;40.40;32.30;39.70;101174;;;;576984;242;23090;-80
2023/05/26 09:09:01;;;;;;;14.38;4.87;;;40.40;31.50;39.70;101176;;;;582271;242;24080;-81
2023/05/26 09:11:30;;;;;;;13.73;5.20;;;40.40;31.90;39.80;101178;;;;582665;242;23049;-81
2023/05/26 09:13:57;;;;;;;11.25;4.62;;;40.60;31.90;40.30;101173;;;;582511;242;23045;-81
2023/05/26 09:16:25;;;;;;;15.90;5.72;;;40.90;32.10;40.90;101178;;;;582709;240;23085;-80
2023/05/26 09:18:59;;;;;;;15.10;5.57;;;41.50;31.80;40.90;101184;;;;584035;241;23052;-79
2023/05/26 09:21:30;;;;;;;15.82;6.15;;;41.60;32.10;41.20;101173;;;;583703;242;23126;-80
2023/05/26 09:23:55;;;;;;;13.93;5.45;;;41.80;31.90;41.60;101186;;;;583329;242;23089;-80
2023/05/26 09:26:31;;;;;;;13.95;5.47;;;42.30;31.90;42.10;101176;;;;583046;242;23033;-80
2023/05/26 09:28:59;;;;;;;16.25;5.35;;;43.00;30.60;42.10;101179;;;;583478;242;23051;-80
2023/05/26 09:31:42;;;;;;;10.45;4.62;;;43.00;31.80;42.40;101193;;;;583277;242;23063;-80
2023/05/26 09:34:10;;;;;;;19.33;5.87;;;43.40;31.10;42.70;101194;;;;582778;241;23072;-81
2023/05/26 09:36:38;;;;;;;11.35;5.00;;;43.70;30.90;42.90;101191;;;;583376;242;23052;-81
2023/05/26 09:39:09;;;;;;;15.13;4.90;;;43.40;28.90;41.90;101200;;;;583311;241;23098;-81
2023/05/26 09:41:37;;;;;;;13.38;4.68;;;42.20;29.60;40.60;101196;;;;583058;242;23068;-80
2023/05/26 09:44:14;;;;;;;14.60;4.68;;;42.20;29.60;39.60;101195;;;;583165;241;23083;-81
2023/05/26 09:46:42;;;;;;;17.27;5.68;;;41.10;30.10;39.10;101198;;;;583352;242;23100;-81
2023/05/26 09:49:13;;;;;;;20.50;5.07;;;40.40;31.20;39.40;101196;;;;582875;241;23042;-80
2023/05/26 09:51:50;;;;;;;11.45;5.15;;;41.10;31.50;40.30;101200;;;;582624;242;23112;-80
2023/05/26 09:54:18;;;;;;;12.82;4.95;;;41.00;31.40;41.00;101201;;;;582558;242;23064;-80
2023/05/26 09:56:52;;;;;;;14.25;5.55;;;41.80;29.90;41.40;101212;;;;577735;242;35080;-79
2023/05/26 09:59:26;;;;;;;20.52;4.82;;;42.50;30.00;41.20;101204;;;;582459;242;23054;-79
2023/05/26 10:01:48;;;;;;;13.68;4.65;;;42.50;30.10;41.40;101203;;;;582126;242;23038;-79
2023/05/26 10:04:16;;;;;;;16.95;4.50;;;42.50;30.20;41.50;101202;;;;583045;241;23097;-79
2023/05/26 10:06:44;;;;;;;19.30;4.70;;;42.80;29.30;41.20;101218;;;;582973;242;23074;-80
2023/05/26 10:09:15;;;;;;;15.23;5.50;;;42.60;29.60;41.00;101212;;;;583100;241;23054;-80
2023/05/26 10:11:43;;;;;;;23.17;6.45;;;42.50;29.50;40.60;101223;;;;582827;242;23059;-80
2023/05/26 10:14:11;;;;;;;18.27;4.93;;;42.10;29.60;39.70;101215;;;;583047;242;23172;-80
2023/05/26 10:16:39;;;;;;;20.02;5.25;;;40.20;29.40;38.50;101226;;;;583095;242;23083;-79
2023/05/26 10:19:10;;;;;;;18.05;4.65;;;39.10;30.80;37.70;101219;;;;583119;242;23111;-79
2023/05/26 10:21:39;;;;;;;14.02;4.47;;;38.40;31.50;37.20;101222;;;;582470;240;23055;-80
2023/05/26 10:24:28;;;;;;;13.05;4.15;;;38.40;31.50;36.90;101227;;;;583049;242;24114;-79
2023/05/26 10:26:59;;;;;;;9.60;4.18;;;38.10;32.00;36.50;101229;;;;582593;242;23093;-80
2023/05/26 10:29:48;;;;;;;18.77;5.18;;;37.70;32.00;35.80;101225;;;;592812;241;23040;-80
2023/05/26 10:32:49;;;;;;;11.10;3.95;;;37.20;32.00;33.90;101219;;;;583809;242;23104;-79
2023/05/26 10:35:26;;;;;;;10.45;4.07;;;35.70;33.10;33.00;101205;;;;583973;242;23134;-79
2023/05/26 10:38:03;;;;;;;31.83;5.12;;;33.10;35.00;31.70;101212;;;;583727;242;23064;-80
2023/05/26 10:40:31;;;;;;;16.15;4.62;;;33.00;35.50;30.70;101213;;;;583975;242;23036;-79
2023/05/26 10:43:08;;;;;;;13.13;4.45;;;31.80;37.70;29.50;101206;;;;583287;242;23062;-82
2023/05/26 10:45:36;;;;;;;18.90;3.80;;;29.60;39.40;28.80;101225;;;;579360;244;23081;-82
2023/05/26 10:48:10;;;;;;;12.50;3.62;;;28.40;40.30;27.90;101209;;;;557249;246;23138;-78
2023/05/26 10:50:56;;;;;;;24.55;6.43;;;27.00;41.30;26.80;101206;;;;557288;252;23107;-78
2023/05/26 10:53:25;;;;;;;16.47;4.60;;;26.40;43.40;26.00;101216;;;;560124;252;23140;-81
2023/05/26 10:55:58;;;;;;;18.70;5.37;;;25.80;45.30;25.20;101206;;;;563300;252;23104;-79
2023/05/26 10:58:41;;;;;;;14.70;4.43;;;25.10;46.40;24.40;101211;;;;560490;250;23098;-84
2023/05/26 11:01:06;;;;;;;13.67;4.50;;;24.10;47.00;23.80;101211;;;;577196;245;24064;-83
2023/05/26 11:03:43;;;;;;;21.20;6.60;;;23.80;47.20;23.30;101206;;;;575201;245;24092;-83
2023/05/26 11:06:10;;;;;;;28.23;6.33;;;23.60;48.80;22.90;101215;;;;581473;244;24135;-83
2023/05/26 11:08:38;;;;;;;33.33;5.63;;;22.70;49.30;22.50;101215;;;;567258;249;23131;-80
2023/05/26 11:11:06;;;;;;;20.77;4.50;;;23.10;50.30;22.10;101205;;;;571851;249;24071;-77
2023/05/26 11:13:50;;;;;;;14.33;4.97;;;22.30;50.90;21.80;101210;;;;571133;250;24047;-81
2023/05/26 11:16:20;;;;;;;11.87;3.90;;;21.90;51.50;21.50;101211;;;;576232;245;24097;-84
2023/05/26 11:18:54;;;;;;;23.20;4.77;;;22.00;51.70;21.40;101198;;;;574204;245;24113;-84